createdAt,value
2018-07-24T00:01:33.969Z,4.55
2018-07-24T00:04:02.103Z,8.08
2018-07-24T00:06:30.233Z,5.85
2018-07-24T00:08:58.369Z,6.55
2018-07-24T00:11:26.504Z,6.10
2018-07-24T00:13:54.656Z,6.42
2018-07-24T00:16:22.809Z,5.85
2018-07-24T00:18:50.957Z,6.53
2018-07-24T00:21:19.080Z,6.62
2018-07-24T00:23:47.242Z,6.45
2018-07-24T00:26:15.366Z,7.95
2018-07-24T00:28:43.505Z,6.87
2018-07-24T00:31:11.648Z,7.25
2018-07-24T00:33:39.778Z,5.60
2018-07-24T00:36:07.910Z,7.20
2018-07-24T00:38:36.042Z,7.20
2018-07-24T00:41:04.162Z,7.03
2018-07-24T00:43:32.306Z,8.88
2018-07-24T00:46:00.450Z,6.00
2018-07-24T00:48:28.589Z,8.05
2018-07-24T00:50:56.715Z,7.08
2018-07-24T00:53:24.846Z,5.95
2018-07-24T00:55:52.985Z,6.08
2018-07-24T00:58:21.114Z,7.05
2018-07-24T01:00:49.253Z,7.83
2018-07-24T01:03:17.385Z,7.17
2018-07-24T01:05:45.534Z,9.43
2018-07-24T01:08:13.650Z,7.08
2018-07-24T01:10:41.832Z,8.15
2018-07-24T01:13:09.957Z,4.92
2018-07-24T01:15:38.086Z,5.80
2018-07-24T01:18:06.212Z,5.42
2018-07-24T01:20:34.330Z,5.15
2018-07-24T01:23:02.250Z,5.80
2018-07-24T01:25:30.766Z,5.10
2018-07-24T01:27:59.135Z,5.58
2018-07-24T01:30:27.283Z,6.22
2018-07-24T01:32:55.409Z,6.87
2018-07-24T01:35:23.768Z,5.22
2018-07-24T01:37:51.895Z,5.62
2018-07-24T01:40:20.018Z,7.12
2018-07-24T01:42:48.133Z,5.12
2018-07-24T01:45:16.252Z,5.22
2018-07-24T01:47:44.390Z,6.70
2018-07-24T01:50:12.501Z,5.40
2018-07-24T01:52:40.658Z,5.90
2018-07-24T01:55:08.991Z,5.75
2018-07-24T01:57:37.179Z,6.20
2018-07-24T02:00:05.734Z,6.05
2018-07-24T02:02:33.672Z,6.33
2018-07-24T02:05:01.803Z,6.72
2018-07-24T02:07:29.938Z,6.25
2018-07-24T02:09:58.083Z,7.53
2018-07-24T02:12:26.219Z,7.08
2018-07-24T02:14:54.341Z,4.85
2018-07-24T02:17:22.463Z,7.12
2018-07-24T02:19:50.576Z,6.70
2018-07-24T02:22:18.719Z,6.05
2018-07-24T02:24:46.838Z,10.45
2018-07-24T02:27:14.965Z,6.92
2018-07-24T02:29:43.187Z,6.53
2018-07-24T02:32:11.315Z,5.65
2018-07-24T02:34:39.432Z,6.25
2018-07-24T02:37:07.576Z,6.67
2018-07-24T02:39:35.705Z,7.58
2018-07-24T02:42:03.830Z,7.08
2018-07-24T02:44:31.971Z,7.10
2018-07-24T02:47:00.201Z,5.50
2018-07-24T02:49:28.317Z,5.33
2018-07-24T02:51:56.443Z,7.80
2018-07-24T02:54:24.557Z,5.42
2018-07-24T02:56:52.707Z,8.28
2018-07-24T02:59:20.982Z,6.45
2018-07-24T03:01:49.090Z,6.47
2018-07-24T03:04:17.238Z,6.72
2018-07-24T03:06:45.357Z,6.53
2018-07-24T03:09:13.506Z,6.92
2018-07-24T03:11:41.626Z,6.58
2018-07-24T03:14:09.783Z,6.03
2018-07-24T03:16:37.985Z,7.60
2018-07-24T03:19:06.119Z,7.12
2018-07-24T03:21:34.234Z,7.12
2018-07-24T03:24:02.395Z,6.92
2018-07-24T03:26:30.524Z,6.58
2018-07-24T03:28:58.649Z,6.65
2018-07-24T03:31:26.780Z,6.58
2018-07-24T03:33:54.922Z,6.12
2018-07-24T03:36:23.057Z,6.37
2018-07-24T03:38:51.183Z,4.97
2018-07-24T03:41:19.306Z,5.60
2018-07-24T03:43:47.435Z,16.17
2018-07-24T03:46:15.563Z,5.95
2018-07-24T03:48:43.711Z,8.00
2018-07-24T03:51:11.843Z,9.65
2018-07-24T03:53:39.962Z,6.83
2018-07-24T03:56:08.118Z,7.20
2018-07-24T03:58:36.275Z,7.33
2018-07-24T04:01:04.414Z,8.75
2018-07-24T04:03:32.578Z,7.78
2018-07-24T04:06:00.714Z,8.85
2018-07-24T04:08:28.843Z,8.70
2018-07-24T04:10:56.974Z,8.15
2018-07-24T04:13:25.117Z,9.30
2018-07-24T04:15:53.250Z,9.80
2018-07-24T04:18:21.390Z,10.55
2018-07-24T04:20:49.522Z,9.40
2018-07-24T04:23:17.655Z,9.60
2018-07-24T04:25:45.831Z,9.60
2018-07-24T04:28:13.961Z,12.05
2018-07-24T04:30:42.158Z,12.20
2018-07-24T04:33:10.279Z,9.83
2018-07-24T04:35:38.398Z,10.72
2018-07-24T04:38:06.552Z,10.60
2018-07-24T04:40:34.723Z,11.48
2018-07-24T04:43:02.867Z,11.40
2018-07-24T04:45:30.995Z,12.58
2018-07-24T04:47:59.138Z,12.37
2018-07-24T04:50:27.262Z,10.65
2018-07-24T04:52:55.404Z,11.60
2018-07-24T04:55:23.539Z,11.90
2018-07-24T04:57:51.674Z,11.55
2018-07-24T05:00:19.794Z,12.95
2018-07-24T05:02:47.957Z,14.15
2018-07-24T05:05:16.103Z,13.53
2018-07-24T05:07:44.013Z,13.85
2018-07-24T05:10:12.163Z,14.87
2018-07-24T05:12:40.306Z,12.85
2018-07-24T05:15:08.206Z,17.25
2018-07-24T05:17:36.355Z,15.68
2018-07-24T05:20:04.293Z,17.25
2018-07-24T05:22:32.451Z,14.65
2018-07-24T05:25:00.591Z,18.25
2018-07-24T05:27:28.741Z,17.98
2018-07-24T05:29:56.865Z,19.12
2018-07-24T05:32:25.014Z,19.40
2018-07-24T05:34:53.157Z,17.65
2018-07-24T05:37:21.293Z,16.67
2018-07-24T05:39:49.481Z,15.18
2018-07-24T05:42:17.635Z,12.28
2018-07-24T05:44:45.772Z,13.50
2018-07-24T05:47:13.898Z,11.85
2018-07-24T05:49:42.077Z,13.50
2018-07-24T05:52:10.271Z,13.58
2018-07-24T05:54:38.433Z,18.52
2018-07-24T05:57:06.595Z,14.87
2018-07-24T05:59:34.734Z,16.55
2018-07-24T06:02:02.925Z,19.52
2018-07-24T06:04:31.011Z,20.23
2018-07-24T06:06:59.143Z,25.27
2018-07-24T06:09:27.297Z,16.40
2018-07-24T06:11:55.429Z,13.70
2018-07-24T06:14:23.637Z,14.78
2018-07-24T06:16:51.878Z,28.10
2018-07-24T06:19:19.896Z,15.30
2018-07-24T06:21:48.064Z,21.52
2018-07-24T06:24:16.151Z,13.93
2018-07-24T06:26:44.286Z,15.18
2018-07-24T06:29:12.455Z,16.73
2018-07-24T06:31:40.570Z,14.70
2018-07-24T06:34:08.711Z,13.60
2018-07-24T06:36:36.854Z,14.90
2018-07-24T06:39:09.298Z,15.23
2018-07-24T06:41:37.618Z,14.05
2018-07-24T06:44:05.784Z,13.53
2018-07-24T06:46:33.969Z,15.90
2018-07-24T06:49:02.339Z,21.02
2018-07-24T06:51:30.539Z,15.72
2018-07-24T06:53:58.599Z,15.15
2018-07-24T06:56:26.741Z,13.75
2018-07-24T06:58:54.877Z,13.40
2018-07-24T07:01:23.000Z,11.68
2018-07-24T07:03:51.133Z,11.95
2018-07-24T07:06:19.305Z,13.88
2018-07-24T07:08:47.470Z,12.95
2018-07-24T07:11:15.623Z,13.38
2018-07-24T07:13:43.768Z,18.55
2018-07-24T07:16:11.942Z,13.83
2018-07-24T07:18:40.070Z,16.62
2018-07-24T07:21:08.210Z,11.57
2018-07-24T07:23:36.345Z,11.25
2018-07-24T07:26:04.555Z,15.32
2018-07-24T07:28:32.667Z,12.33
2018-07-24T07:31:00.806Z,13.03
2018-07-24T07:33:28.947Z,9.45
2018-07-24T07:35:57.087Z,11.25
2018-07-24T07:38:25.250Z,10.40
2018-07-24T07:40:53.390Z,8.65
2018-07-24T07:43:21.550Z,9.75
2018-07-24T07:45:49.684Z,8.85
2018-07-24T07:48:17.822Z,9.35
2018-07-24T07:50:45.950Z,6.70
2018-07-24T07:53:14.098Z,8.13
2018-07-24T07:55:42.255Z,6.95
2018-07-24T07:58:10.406Z,9.80
2018-07-24T08:00:38.304Z,7.12
2018-07-24T08:03:06.474Z,11.50
2018-07-24T08:05:34.608Z,6.08
2018-07-24T08:08:02.818Z,6.28
2018-07-24T08:10:31.026Z,5.85
2018-07-24T08:12:59.170Z,6.22
2018-07-24T08:15:27.301Z,5.97
2018-07-24T08:17:55.434Z,7.05
2018-07-24T08:20:23.756Z,4.78
2018-07-24T08:22:51.957Z,4.22
2018-07-24T08:25:20.126Z,4.65
2018-07-24T08:27:48.320Z,6.53
2018-07-24T08:30:16.442Z,3.83
2018-07-24T08:32:44.594Z,4.35
2018-07-24T08:35:12.750Z,4.47
2018-07-24T08:37:40.874Z,4.85
2018-07-24T08:40:09.033Z,4.00
2018-07-24T08:42:37.606Z,6.75
2018-07-24T08:45:06.105Z,5.90
2018-07-24T08:47:34.240Z,5.40
2018-07-24T08:50:02.487Z,4.05
2018-07-24T08:52:30.700Z,4.25
2018-07-24T08:54:58.968Z,4.10
2018-07-24T08:57:26.874Z,5.03
2018-07-24T08:59:55.001Z,4.70
2018-07-24T09:02:23.157Z,4.30
2018-07-24T09:04:51.310Z,4.33
2018-07-24T09:07:19.453Z,3.27
2018-07-24T09:09:47.569Z,3.92
2018-07-24T09:12:15.999Z,4.47
2018-07-24T09:14:44.130Z,7.42
2018-07-24T09:17:12.258Z,5.20
2018-07-24T09:19:40.376Z,4.00
2018-07-24T09:22:08.502Z,5.45
2018-07-24T09:24:36.626Z,4.95
2018-07-24T09:27:04.876Z,4.05
2018-07-24T09:29:32.917Z,5.55
2018-07-24T09:32:01.069Z,5.30
2018-07-24T09:34:29.162Z,6.33
2018-07-24T09:36:57.315Z,3.95
2018-07-24T09:39:25.436Z,3.80
2018-07-24T09:41:53.591Z,3.47
2018-07-24T09:44:21.710Z,6.25
2018-07-24T09:46:49.830Z,4.80
2018-07-24T09:49:17.971Z,5.58
2018-07-24T09:51:46.091Z,4.47
2018-07-24T09:54:13.986Z,5.60
2018-07-24T09:56:42.119Z,4.67
2018-07-24T09:59:10.035Z,3.98
2018-07-24T10:01:38.165Z,3.17
2018-07-24T10:04:06.354Z,4.45
2018-07-24T10:06:35.027Z,4.17
2018-07-24T10:09:04.129Z,5.05
2018-07-24T10:11:32.275Z,3.80
2018-07-24T10:14:00.399Z,4.33
2018-07-24T10:16:28.553Z,5.42
2018-07-24T10:18:56.761Z,4.05
2018-07-24T10:21:24.834Z,3.92
2018-07-24T10:23:52.980Z,4.30
2018-07-24T10:26:21.106Z,4.33
2018-07-24T10:28:49.262Z,3.77
2018-07-24T10:31:17.399Z,3.60
2018-07-24T10:33:45.541Z,4.47
2018-07-24T10:36:13.739Z,4.10
2018-07-24T10:38:41.963Z,3.50
2018-07-24T10:41:10.137Z,5.60
2018-07-24T10:43:38.275Z,4.58
2018-07-24T10:46:06.450Z,4.05
2018-07-24T10:48:34.578Z,4.58
2018-07-24T10:51:02.726Z,4.62
2018-07-24T10:53:30.866Z,5.58
2018-07-24T10:55:59.011Z,6.67
2018-07-24T10:58:27.130Z,5.05
2018-07-24T11:00:55.281Z,4.55
2018-07-24T11:03:23.427Z,4.75
2018-07-24T11:05:51.570Z,3.98
2018-07-24T11:08:19.715Z,5.33
2018-07-24T11:10:47.874Z,7.97
2018-07-24T11:13:16.007Z,4.45
2018-07-24T11:15:44.141Z,5.03
2018-07-24T11:18:12.293Z,4.22
2018-07-24T11:20:40.423Z,4.92
2018-07-24T11:23:08.696Z,3.90
2018-07-24T11:25:36.749Z,3.95
2018-07-24T11:28:04.885Z,6.22
2018-07-24T11:30:33.030Z,4.37
2018-07-24T11:33:01.662Z,5.10
2018-07-24T11:35:29.761Z,4.20
2018-07-24T11:37:57.859Z,5.17
2018-07-24T11:40:26.011Z,6.70
2018-07-24T11:42:54.212Z,3.65
2018-07-24T11:45:22.344Z,3.33
2018-07-24T11:47:50.474Z,4.15
2018-07-24T11:50:18.618Z,4.65
2018-07-24T11:52:46.754Z,3.60
2018-07-24T11:55:14.906Z,3.62
2018-07-24T11:57:43.100Z,3.92
2018-07-24T12:00:11.246Z,4.15
2018-07-24T12:02:39.385Z,3.45
2018-07-24T12:05:07.543Z,4.62
2018-07-24T12:07:35.697Z,3.62
2018-07-24T12:10:04.246Z,4.20
2018-07-24T12:12:32.381Z,4.25
2018-07-24T12:15:00.577Z,4.67
2018-07-24T12:17:28.679Z,4.75
2018-07-24T12:19:56.927Z,3.67
2018-07-24T12:22:25.109Z,4.35
2018-07-24T12:24:53.246Z,4.50
2018-07-24T12:27:21.377Z,5.12
2018-07-24T12:29:49.523Z,4.15
2018-07-24T12:32:17.658Z,3.80
2018-07-24T12:34:45.794Z,4.72
2018-07-24T12:37:13.945Z,5.42
2018-07-24T12:39:42.075Z,5.50
2018-07-24T12:42:10.478Z,4.47
2018-07-24T12:44:38.634Z,3.98
2018-07-24T12:47:06.813Z,4.90
2018-07-24T12:49:34.941Z,4.00
2018-07-24T12:52:03.085Z,3.65
2018-07-24T12:54:31.218Z,4.28
2018-07-24T12:56:59.465Z,3.58
2018-07-24T12:59:27.585Z,3.55
2018-07-24T13:01:55.741Z,3.87
2018-07-24T13:04:23.898Z,4.28
2018-07-24T13:06:51.999Z,4.30
2018-07-24T13:09:20.122Z,4.25
2018-07-24T13:11:48.252Z,4.65
2018-07-24T13:14:16.383Z,4.62
2018-07-24T13:16:44.593Z,4.92
2018-07-24T13:19:12.664Z,4.15
2018-07-24T13:21:40.801Z,5.28
2018-07-24T13:24:08.925Z,3.55
2018-07-24T13:26:37.037Z,6.00
2018-07-24T13:29:05.210Z,4.75
2018-07-24T13:31:33.317Z,4.20
2018-07-24T13:34:01.450Z,5.20
2018-07-24T13:36:29.565Z,4.78
2018-07-24T13:38:57.706Z,5.00
2018-07-24T13:41:25.845Z,3.85
2018-07-24T13:43:54.053Z,3.55
2018-07-24T13:46:22.222Z,4.22
2018-07-24T13:48:50.333Z,4.50
2018-07-24T13:51:18.471Z,6.00
2018-07-24T13:53:47.408Z,3.80
2018-07-24T13:56:15.542Z,5.33
2018-07-24T13:58:43.697Z,4.05
2018-07-24T14:01:11.810Z,4.50
2018-07-24T14:03:39.958Z,4.95
2018-07-24T14:06:08.086Z,4.17
2018-07-24T14:08:36.230Z,5.17
2018-07-24T14:11:04.362Z,3.80
2018-07-24T14:13:32.506Z,4.35
2018-07-24T14:16:00.639Z,4.17
2018-07-24T14:18:28.574Z,4.17
2018-07-24T14:20:56.706Z,3.50
2018-07-24T14:23:24.844Z,3.95
2018-07-24T14:25:52.994Z,3.62
2018-07-24T14:28:21.129Z,3.67
2018-07-24T14:30:49.271Z,4.15
2018-07-24T14:33:17.449Z,3.77
2018-07-24T14:35:45.597Z,5.85
2018-07-24T14:38:13.798Z,4.00
2018-07-24T14:40:41.958Z,3.98
2018-07-24T14:43:10.118Z,3.92
2018-07-24T14:45:38.296Z,3.98
2018-07-24T14:48:06.439Z,3.22
2018-07-24T14:50:34.586Z,5.03
2018-07-24T14:53:02.721Z,3.83
2018-07-24T14:55:30.881Z,4.00
2018-07-24T14:57:59.001Z,3.60
2018-07-24T15:00:27.178Z,3.02
2018-07-24T15:02:55.314Z,4.70
2018-07-24T15:05:23.451Z,3.55
2018-07-24T15:07:51.594Z,3.77
2018-07-24T15:10:19.727Z,3.80
2018-07-24T15:12:47.887Z,4.00
2018-07-24T15:15:16.009Z,3.42
2018-07-24T15:17:44.156Z,3.77
2018-07-24T15:20:12.303Z,5.03
2018-07-24T15:22:40.466Z,4.25
2018-07-24T15:25:08.598Z,3.67
2018-07-24T15:27:36.734Z,3.52
2018-07-24T15:30:06.730Z,4.45
2018-07-24T15:32:34.873Z,4.08
2018-07-24T15:35:03.646Z,3.35
2018-07-24T15:37:31.722Z,4.25
2018-07-24T15:39:59.861Z,3.10
2018-07-24T15:42:28.033Z,3.30
2018-07-24T15:44:56.172Z,3.40
2018-07-24T15:47:24.300Z,4.08
2018-07-24T15:49:52.438Z,3.25
2018-07-24T15:52:20.573Z,3.15
2018-07-24T15:54:48.706Z,4.90
2018-07-24T15:57:16.957Z,3.15
2018-07-24T15:59:45.306Z,3.10
2018-07-24T16:02:13.471Z,3.52
2018-07-24T16:04:41.618Z,2.85
2018-07-24T16:07:09.815Z,3.85
2018-07-24T16:09:38.378Z,3.10
2018-07-24T16:12:07.199Z,3.08
2018-07-24T16:14:35.333Z,3.35
2018-07-24T16:17:03.463Z,2.87
2018-07-24T16:19:31.597Z,3.52
2018-07-24T16:21:59.730Z,3.15
2018-07-24T16:24:27.918Z,3.37
2018-07-24T16:26:56.038Z,4.90
2018-07-24T16:29:24.174Z,3.55
2018-07-24T16:31:52.304Z,3.92
2018-07-24T16:34:20.463Z,3.20
2018-07-24T16:36:48.602Z,3.08
2018-07-24T16:39:16.516Z,2.95
2018-07-24T16:41:44.775Z,2.92
2018-07-24T16:44:12.906Z,4.28
2018-07-24T16:46:41.041Z,4.28
2018-07-24T16:49:09.170Z,3.02
2018-07-24T16:51:37.297Z,3.58
2018-07-24T16:54:05.434Z,3.50
2018-07-24T16:56:33.571Z,3.58
2018-07-24T16:59:01.706Z,3.35
2018-07-24T17:01:29.840Z,3.15
2018-07-24T17:03:58.021Z,3.47
2018-07-24T17:06:26.194Z,4.15
2018-07-24T17:08:54.342Z,3.30
2018-07-24T17:11:22.527Z,3.58
2018-07-24T17:13:50.700Z,3.65
2018-07-24T17:16:18.830Z,3.20
2018-07-24T17:18:46.957Z,3.40
2018-07-24T17:21:15.090Z,3.27
2018-07-24T17:23:43.226Z,4.67
2018-07-24T17:26:11.483Z,3.10
2018-07-24T17:28:39.595Z,3.12
2018-07-24T17:31:08.106Z,3.22
2018-07-24T17:33:36.240Z,4.22
2018-07-24T17:36:04.629Z,3.30
2018-07-24T17:38:32.779Z,5.08
2018-07-24T17:41:01.022Z,3.37
2018-07-24T17:43:29.153Z,4.08
2018-07-24T17:45:57.621Z,3.62
2018-07-24T17:48:25.805Z,3.08
2018-07-24T17:50:53.926Z,3.20
2018-07-24T17:53:22.057Z,3.00
2018-07-24T17:55:50.177Z,2.98
2018-07-24T17:58:18.331Z,3.17
2018-07-24T18:00:46.473Z,3.50
2018-07-24T18:03:14.757Z,5.20
2018-07-24T18:05:42.913Z,3.37
2018-07-24T18:08:11.056Z,2.90
2018-07-24T18:10:39.216Z,3.77
2018-07-24T18:13:07.350Z,3.77
2018-07-24T18:15:35.583Z,2.92
2018-07-24T18:18:03.662Z,3.27
2018-07-24T18:20:31.795Z,2.30
2018-07-24T18:22:59.930Z,4.12
2018-07-24T18:25:28.064Z,3.05
2018-07-24T18:27:56.207Z,2.98
2018-07-24T18:30:24.339Z,2.70
2018-07-24T18:32:52.534Z,3.40
2018-07-24T18:35:20.613Z,3.25
2018-07-24T18:37:48.763Z,2.65
2018-07-24T18:40:16.934Z,2.60
2018-07-24T18:42:45.074Z,2.45
2018-07-24T18:45:13.230Z,2.95
2018-07-24T18:47:41.375Z,2.45
2018-07-24T18:50:09.510Z,2.72
2018-07-24T18:52:37.658Z,2.42
2018-07-24T18:55:05.807Z,1.95
2018-07-24T18:57:33.940Z,2.50
2018-07-24T19:00:02.105Z,2.40
2018-07-24T19:02:30.213Z,2.60
2018-07-24T19:04:58.374Z,2.65
2018-07-24T19:07:26.507Z,3.70
2018-07-24T19:09:54.644Z,3.27
2018-07-24T19:12:22.795Z,3.80
2018-07-24T19:14:50.943Z,4.12
2018-07-24T19:17:19.136Z,3.67
2018-07-24T19:19:47.314Z,5.05
2018-07-24T19:22:15.461Z,4.33
2018-07-24T19:24:43.577Z,3.87
2018-07-24T19:27:11.737Z,3.67
2018-07-24T19:29:39.905Z,4.08
2018-07-24T19:32:08.038Z,3.98
2018-07-24T19:34:36.203Z,4.17
2018-07-24T19:37:04.082Z,4.42
2018-07-24T19:39:32.654Z,4.37
2018-07-24T19:42:00.822Z,4.50
2018-07-24T19:44:29.000Z,4.78
2018-07-24T19:46:57.128Z,4.60
2018-07-24T19:49:25.404Z,5.72
2018-07-24T19:51:53.474Z,5.12
2018-07-24T19:54:21.619Z,5.00
2018-07-24T19:56:49.781Z,6.92
2018-07-24T19:59:18.000Z,5.17
2018-07-24T20:01:46.182Z,4.85
2018-07-24T20:04:14.326Z,6.45
2018-07-24T20:06:42.470Z,5.03
2018-07-24T20:09:11.939Z,4.62
2018-07-24T20:11:40.087Z,6.08
2018-07-24T20:14:08.286Z,6.25
2018-07-24T20:16:36.507Z,5.50
2018-07-24T20:19:04.793Z,5.53
2018-07-24T20:21:32.960Z,5.03
2018-07-24T20:24:01.103Z,6.87
2018-07-24T20:26:29.578Z,5.17
2018-07-24T20:28:57.931Z,5.30
2018-07-24T20:31:26.184Z,5.90
2018-07-24T20:33:54.314Z,5.20
2018-07-24T20:36:22.586Z,5.12
2018-07-24T20:38:50.731Z,4.85
2018-07-24T20:41:18.918Z,4.70
2018-07-24T20:43:47.054Z,6.12
2018-07-24T20:46:15.198Z,6.00
2018-07-24T20:48:43.335Z,5.87
2018-07-24T20:51:11.494Z,8.85
2018-07-24T20:53:39.610Z,7.17
2018-07-24T20:56:07.842Z,5.65
2018-07-24T20:58:35.978Z,6.10
2018-07-24T21:01:04.177Z,6.00
2018-07-24T21:03:32.449Z,9.95
2018-07-24T21:06:00.617Z,7.03
2018-07-24T21:08:29.027Z,5.37
2018-07-24T21:10:57.167Z,9.18
2018-07-24T21:13:25.431Z,5.85
2018-07-24T21:15:53.568Z,5.53
2018-07-24T21:18:21.718Z,5.25
2018-07-24T21:20:49.926Z,4.85
2018-07-24T21:23:18.016Z,5.10
2018-07-24T21:25:46.149Z,6.87
2018-07-24T21:28:14.290Z,6.03
2018-07-24T21:30:42.444Z,6.12
2018-07-24T21:33:10.570Z,6.12
2018-07-24T21:35:38.689Z,5.67
2018-07-24T21:38:06.836Z,4.87
2018-07-24T21:40:35.093Z,6.08
2018-07-24T21:43:03.220Z,6.50
2018-07-24T21:45:31.386Z,5.20
2018-07-24T21:47:59.590Z,6.35
2018-07-24T21:50:27.747Z,5.08
2018-07-24T21:52:56.401Z,5.47
2018-07-24T21:55:24.571Z,5.20
2018-07-24T21:57:52.900Z,7.08
2018-07-24T22:00:21.039Z,5.53
2018-07-24T22:02:49.170Z,5.53
2018-07-24T22:05:17.533Z,5.35
2018-07-24T22:07:45.688Z,6.30
2018-07-24T22:10:19.233Z,5.22
2018-07-24T22:12:47.381Z,6.10
2018-07-24T22:15:21.170Z,5.92
2018-07-24T22:17:49.549Z,6.35
2018-07-24T22:20:17.946Z,5.83
2018-07-24T22:22:46.111Z,5.30
2018-07-24T22:25:14.894Z,6.65
2018-07-24T22:27:43.024Z,6.00
2018-07-24T22:30:11.634Z,6.05
2018-07-24T22:32:39.885Z,6.25
2018-07-24T22:35:09.245Z,5.85
2018-07-24T22:37:37.927Z,8.08
2018-07-24T22:40:06.299Z,5.58
2018-07-24T22:42:34.442Z,6.10
2018-07-24T22:45:02.579Z,4.92
2018-07-24T22:47:30.736Z,4.83
2018-07-24T22:49:58.897Z,5.87
2018-07-24T22:52:27.195Z,6.03
2018-07-24T22:54:55.325Z,4.83
2018-07-24T22:57:23.471Z,7.45
2018-07-24T22:59:51.891Z,4.47
2018-07-24T23:02:20.023Z,4.28
2018-07-24T23:04:48.157Z,5.47
2018-07-24T23:07:16.293Z,5.67
2018-07-24T23:09:44.426Z,4.83
2018-07-24T23:12:12.565Z,6.03
2018-07-24T23:14:40.686Z,6.10
2018-07-24T23:17:08.814Z,4.95
2018-07-24T23:19:36.954Z,5.55
2018-07-24T23:22:05.238Z,4.62
2018-07-24T23:24:33.383Z,4.97
2018-07-24T23:27:01.522Z,4.78
2018-07-24T23:29:29.747Z,5.30
2018-07-24T23:31:57.907Z,4.95
2018-07-24T23:34:26.047Z,6.62
2018-07-24T23:36:54.191Z,4.55
2018-07-24T23:39:22.319Z,5.58
2018-07-24T23:41:50.464Z,4.50
2018-07-24T23:44:18.597Z,5.08
2018-07-24T23:46:46.807Z,4.70
2018-07-24T23:49:14.873Z,5.53
2018-07-24T23:51:43.017Z,5.65
2018-07-24T23:54:11.145Z,6.65
2018-07-24T23:56:39.282Z,5.12
2018-07-24T23:59:07.437Z,7.62
